Skip Navigation Links
NOAA logo - Click to go to the NOAA homepage
NOAA's National Weather Service
Alaska Aviation Weather Unit
  NWS logo - Click to go to the NWS homepage
Left Navbar Graphic     09 AKDT = 17 GMT

   
NOAA is celebrating 200 years of science, service, and stewardship. Visit the NOAA 200th celebration Web site to learn more.
USA.gov is the U.S. Government's official Web portal to all Federal, state and local government Web resources and services.
Facebook
NWS on Facebook

Important Change Regarding the AAWU Web Presence

 

Over the last several months, the AAWU has been working to navigate its webpages to a nationally supported server. Security, as well as other needs, have necessitated the change.  In the process, we have made an effort to enhance the functionality of our website, as well as some of our products. As of June 20, 2017, aawu.arh.noaa.gov will be discontinued. The new AAWU web address is weather.gov/aawu. It is now live and will run in-parallel with the old site until it is discontinued. Please send any feedback or questions regarding the new webpages to nws.ar.aawu.webauthors@noaa.gov.  Thank you for your patience during this time of transition.
AAWU Home :: Display TAF Add Bookmark
TAF PAYA 291306Z 2913/3012 13010G18KT P6SM OVC100
     FM291600 12010G16KT P6SM SCT010 BKN090
     FM291800 12010KT P6SM VCSH BKN010 OVC060
     FM292200 13007KT P6SM VCSH BKN025 OVC050
     FM300300 11003KT P6SM VCSH SCT025 OVC050
      AMD LTD TO CLD VIS AND WIND 3001/3009=

METAR PAYA 291153Z AUTO VRB05KT 10SM BKN100 11/07 A2996 RMK AO2 SLP146 70001 T01060067 10128 20106 51011 TSNO= METAR PAYA 291253Z AUTO 13009G18KT 10SM BKN100 OVC120 10/07 A2997 RMK AO2 SLP150 T01000072 TSNO= METAR PAYA 291353Z AUTO 13012G20KT 10SM BKN090 OVC110 10/07 A2998 RMK AO2 SLP151 T01000067 TSNO= METAR PAYA 291453Z AUTO 14009G18KT 10SM FEW085 BKN110 10/07 A2999 RMK AO2 SLP156 T01000067 53009 TSNO= METAR PAYA 291553Z AUTO 13008KT 10SM OVC090 10/07 A3000 RMK AO2 SLP158 T01000067 TSNO= METAR PAYA 291653Z AUTO 14010G17KT 10SM OVC070 10/07 A3001 RMK AO2 SLP162 T01000067 TSNO=
 Alaska TAF Map

NOAA's National Weather Service
Alaska Aviation Weather Unit
6930 Sand Lake Road
Anchorage, AK 99502-1845
Disclaimer
Credits
Glossary
Privacy Policy
About Us
Career Opportunities
Contact AAWU Internet Services Site last modified: April, 17th 2012